sensor_id;sensor_type;location;lat;lon;timestamp;temperature;humidity
57636;DHT22;43465;50.728;4.160;2023-07-13T00:01:47;18.50;99.90
57636;DHT22;43465;50.728;4.160;2023-07-13T00:04:19;18.40;99.90
57636;DHT22;43465;50.728;4.160;2023-07-13T00:06:46;18.40;99.90
57636;DHT22;43465;50.728;4.160;2023-07-13T00:09:13;18.40;99.90
57636;DHT22;43465;50.728;4.160;2023-07-13T00:11:40;18.30;99.90
57636;DHT22;43465;50.728;4.160;2023-07-13T00:14:06;18.30;99.90
57636;DHT22;43465;50.728;4.160;2023-07-13T00:16:34;18.20;99.90
57636;DHT22;43465;50.728;4.160;2023-07-13T00:19:00;18.20;99.90
57636;DHT22;43465;50.728;4.160;2023-07-13T00:21:26;18.10;99.90
57636;DHT22;43465;50.728;4.160;2023-07-13T00:23:52;18.10;99.90
57636;DHT22;43465;50.728;4.160;2023-07-13T00:26:18;18.00;99.90
57636;DHT22;43465;50.728;4.160;2023-07-13T00:28:43;18.00;99.90
57636;DHT22;43465;50.728;4.160;2023-07-13T00:31:11;18.00;99.90
57636;DHT22;43465;50.728;4.160;2023-07-13T00:33:36;17.90;99.90
57636;DHT22;43465;50.728;4.160;2023-07-13T00:36:03;17.90;99.90
57636;DHT22;43465;50.728;4.160;2023-07-13T00:38:29;17.80;99.90
57636;DHT22;43465;50.728;4.160;2023-07-13T00:40:55;17.80;99.90
57636;DHT22;43465;50.728;4.160;2023-07-13T00:43:22;17.70;99.90
57636;DHT22;43465;50.728;4.160;2023-07-13T00:48:27;17.70;99.90
57636;DHT22;43465;50.728;4.160;2023-07-13T00:50:56;17.70;99.90
57636;DHT22;43465;50.728;4.160;2023-07-13T00:53:25;17.60;99.90
57636;DHT22;43465;50.728;4.160;2023-07-13T00:55:53;17.60;99.90
57636;DHT22;43465;50.728;4.160;2023-07-13T00:58:20;17.60;99.90
57636;DHT22;43465;50.728;4.160;2023-07-13T01:00:47;17.50;99.90
57636;DHT22;43465;50.728;4.160;2023-07-13T01:03:15;17.50;99.90
57636;DHT22;43465;50.728;4.160;2023-07-13T01:05:40;17.50;99.90
57636;DHT22;43465;50.728;4.160;2023-07-13T01:08:07;17.50;99.90
57636;DHT22;43465;50.728;4.160;2023-07-13T01:10:33;17.40;99.90
57636;DHT22;43465;50.728;4.160;2023-07-13T01:13:05;17.40;99.90
57636;DHT22;43465;50.728;4.160;2023-07-13T01:15:43;17.30;99.90
57636;DHT22;43465;50.728;4.160;2023-07-13T01:18:29;17.30;99.90
57636;DHT22;43465;50.728;4.160;2023-07-13T01:20:57;17.20;99.90
57636;DHT22;43465;50.728;4.160;2023-07-13T01:23:23;17.20;99.90
57636;DHT22;43465;50.728;4.160;2023-07-13T01:25:50;17.20;99.90
57636;DHT22;43465;50.728;4.160;2023-07-13T01:28:16;17.20;99.90
57636;DHT22;43465;50.728;4.160;2023-07-13T01:30:43;17.20;99.90
57636;DHT22;43465;50.728;4.160;2023-07-13T01:33:12;17.20;99.90
57636;DHT22;43465;50.728;4.160;2023-07-13T01:35:38;17.20;99.90
57636;DHT22;43465;50.728;4.160;2023-07-13T01:38:05;17.20;99.90
57636;DHT22;43465;50.728;4.160;2023-07-13T01:40:31;17.20;99.90
57636;DHT22;43465;50.728;4.160;2023-07-13T01:42:58;17.10;99.90
57636;DHT22;43465;50.728;4.160;2023-07-13T01:45:23;17.10;99.90
57636;DHT22;43465;50.728;4.160;2023-07-13T01:47:49;17.10;99.90
57636;DHT22;43465;50.728;4.160;2023-07-13T01:50:15;17.10;99.90
57636;DHT22;43465;50.728;4.160;2023-07-13T01:52:41;17.10;99.90
57636;DHT22;43465;50.728;4.160;2023-07-13T01:55:07;17.00;99.90
57636;DHT22;43465;50.728;4.160;2023-07-13T01:57:33;17.00;99.90
57636;DHT22;43465;50.728;4.160;2023-07-13T01:59:59;17.00;99.90
57636;DHT22;43465;50.728;4.160;2023-07-13T02:02:24;17.00;99.90
57636;DHT22;43465;50.728;4.160;2023-07-13T02:04:50;17.00;99.90
57636;DHT22;43465;50.728;4.160;2023-07-13T02:07:16;17.00;99.90
57636;DHT22;43465;50.728;4.160;2023-07-13T02:09:41;17.00;99.90
57636;DHT22;43465;50.728;4.160;2023-07-13T02:12:08;17.00;99.90
57636;DHT22;43465;50.728;4.160;2023-07-13T02:14:33;16.90;99.90
57636;DHT22;43465;50.728;4.160;2023-07-13T02:16:59;16.90;99.90
57636;DHT22;43465;50.728;4.160;2023-07-13T02:19:25;16.90;99.90
57636;DHT22;43465;50.728;4.160;2023-07-13T02:21:50;16.90;99.90
57636;DHT22;43465;50.728;4.160;2023-07-13T02:24:16;16.90;99.90
57636;DHT22;43465;50.728;4.160;2023-07-13T02:26:45;16.90;99.90
57636;DHT22;43465;50.728;4.160;2023-07-13T02:29:10;16.90;99.90
57636;DHT22;43465;50.728;4.160;2023-07-13T02:31:36;16.90;99.90
57636;DHT22;43465;50.728;4.160;2023-07-13T02:34:02;16.90;99.90
57636;DHT22;43465;50.728;4.160;2023-07-13T02:36:28;16.90;99.90
57636;DHT22;43465;50.728;4.160;2023-07-13T02:38:54;16.90;99.90
57636;DHT22;43465;50.728;4.160;2023-07-13T02:41:20;16.80;99.90
57636;DHT22;43465;50.728;4.160;2023-07-13T02:43:46;16.80;99.90
57636;DHT22;43465;50.728;4.160;2023-07-13T02:46:11;16.80;99.90
57636;DHT22;43465;50.728;4.160;2023-07-13T02:48:38;16.80;99.90
57636;DHT22;43465;50.728;4.160;2023-07-13T02:51:04;16.80;99.90
57636;DHT22;43465;50.728;4.160;2023-07-13T02:53:30;16.80;99.90
57636;DHT22;43465;50.728;4.160;2023-07-13T02:55:56;16.70;99.90
57636;DHT22;43465;50.728;4.160;2023-07-13T02:58:21;16.70;99.90
57636;DHT22;43465;50.728;4.160;2023-07-13T03:00:47;16.70;99.90
57636;DHT22;43465;50.728;4.160;2023-07-13T03:03:15;16.70;99.90
57636;DHT22;43465;50.728;4.160;2023-07-13T03:05:43;16.60;99.90
57636;DHT22;43465;50.728;4.160;2023-07-13T03:08:11;16.70;99.90
57636;DHT22;43465;50.728;4.160;2023-07-13T03:10:37;16.60;99.90
57636;DHT22;43465;50.728;4.160;2023-07-13T03:13:03;16.60;99.90
57636;DHT22;43465;50.728;4.160;2023-07-13T03:15:28;16.60;99.90
57636;DHT22;43465;50.728;4.160;2023-07-13T03:17:54;16.60;99.90
57636;DHT22;43465;50.728;4.160;2023-07-13T03:20:20;16.60;99.90
57636;DHT22;43465;50.728;4.160;2023-07-13T03:22:46;16.50;99.90
57636;DHT22;43465;50.728;4.160;2023-07-13T03:25:12;16.50;99.90
57636;DHT22;43465;50.728;4.160;2023-07-13T03:27:38;16.50;99.90
57636;DHT22;43465;50.728;4.160;2023-07-13T03:30:05;16.50;99.90
57636;DHT22;43465;50.728;4.160;2023-07-13T03:32:31;16.50;99.90
57636;DHT22;43465;50.728;4.160;2023-07-13T03:34:56;16.50;99.90
57636;DHT22;43465;50.728;4.160;2023-07-13T03:37:22;16.50;99.90
57636;DHT22;43465;50.728;4.160;2023-07-13T03:39:49;16.50;99.90
57636;DHT22;43465;50.728;4.160;2023-07-13T03:42:14;16.50;99.90
57636;DHT22;43465;50.728;4.160;2023-07-13T03:44:41;16.50;99.90
57636;DHT22;43465;50.728;4.160;2023-07-13T03:47:07;16.50;99.90
57636;DHT22;43465;50.728;4.160;2023-07-13T03:49:34;16.50;99.90
57636;DHT22;43465;50.728;4.160;2023-07-13T03:52:00;16.50;99.90
57636;DHT22;43465;50.728;4.160;2023-07-13T03:54:26;16.50;99.90
57636;DHT22;43465;50.728;4.160;2023-07-13T03:56:52;16.50;99.90
57636;DHT22;43465;50.728;4.160;2023-07-13T03:59:17;16.50;99.90
57636;DHT22;43465;50.728;4.160;2023-07-13T04:01:44;16.50;99.90
57636;DHT22;43465;50.728;4.160;2023-07-13T04:04:10;16.60;99.90
57636;DHT22;43465;50.728;4.160;2023-07-13T04:06:36;16.60;99.90
57636;DHT22;43465;50.728;4.160;2023-07-13T04:09:03;16.60;99.90
57636;DHT22;43465;50.728;4.160;2023-07-13T04:11:31;16.70;99.90
57636;DHT22;43465;50.728;4.160;2023-07-13T04:13:57;16.70;99.90
57636;DHT22;43465;50.728;4.160;2023-07-13T04:16:23;16.70;99.90
57636;DHT22;43465;50.728;4.160;2023-07-13T04:18:49;16.70;99.90
57636;DHT22;43465;50.728;4.160;2023-07-13T04:21:16;16.70;99.90
57636;DHT22;43465;50.728;4.160;2023-07-13T04:23:41;16.80;99.90
57636;DHT22;43465;50.728;4.160;2023-07-13T04:26:07;16.80;99.90
57636;DHT22;43465;50.728;4.160;2023-07-13T04:28:34;16.80;99.90
57636;DHT22;43465;50.728;4.160;2023-07-13T04:30:59;16.80;99.90
57636;DHT22;43465;50.728;4.160;2023-07-13T04:33:26;16.80;99.90
57636;DHT22;43465;50.728;4.160;2023-07-13T04:35:53;16.80;99.90
57636;DHT22;43465;50.728;4.160;2023-07-13T04:38:26;16.80;99.90
57636;DHT22;43465;50.728;4.160;2023-07-13T04:40:57;16.80;99.90
57636;DHT22;43465;50.728;4.160;2023-07-13T04:43:24;16.80;99.90
57636;DHT22;43465;50.728;4.160;2023-07-13T04:45:51;16.90;99.90
57636;DHT22;43465;50.728;4.160;2023-07-13T04:48:17;16.90;99.90
57636;DHT22;43465;50.728;4.160;2023-07-13T04:50:43;16.90;99.90
57636;DHT22;43465;50.728;4.160;2023-07-13T04:53:10;16.90;99.90
57636;DHT22;43465;50.728;4.160;2023-07-13T04:55:36;17.00;99.90
57636;DHT22;43465;50.728;4.160;2023-07-13T04:58:02;17.00;99.90
57636;DHT22;43465;50.728;4.160;2023-07-13T05:00:29;17.00;99.90
57636;DHT22;43465;50.728;4.160;2023-07-13T05:02:58;17.10;99.90
57636;DHT22;43465;50.728;4.160;2023-07-13T05:05:25;17.10;99.90
57636;DHT22;43465;50.728;4.160;2023-07-13T05:07:52;17.20;99.90
57636;DHT22;43465;50.728;4.160;2023-07-13T05:10:17;17.30;99.90
57636;DHT22;43465;50.728;4.160;2023-07-13T05:12:43;17.30;99.90
57636;DHT22;43465;50.728;4.160;2023-07-13T05:15:10;17.40;99.90
57636;DHT22;43465;50.728;4.160;2023-07-13T05:17:35;17.50;99.90
57636;DHT22;43465;50.728;4.160;2023-07-13T05:20:01;17.60;99.90
57636;DHT22;43465;50.728;4.160;2023-07-13T05:22:27;17.60;99.90
57636;DHT22;43465;50.728;4.160;2023-07-13T05:24:52;17.70;99.90
57636;DHT22;43465;50.728;4.160;2023-07-13T05:27:18;17.70;99.90
57636;DHT22;43465;50.728;4.160;2023-07-13T05:29:43;17.80;99.90
57636;DHT22;43465;50.728;4.160;2023-07-13T05:32:09;17.80;99.90
57636;DHT22;43465;50.728;4.160;2023-07-13T05:34:35;17.80;99.90
57636;DHT22;43465;50.728;4.160;2023-07-13T05:37:01;17.90;99.90
57636;DHT22;43465;50.728;4.160;2023-07-13T05:39:27;17.90;99.90
57636;DHT22;43465;50.728;4.160;2023-07-13T05:41:53;17.90;99.90
57636;DHT22;43465;50.728;4.160;2023-07-13T05:44:18;18.00;99.90
57636;DHT22;43465;50.728;4.160;2023-07-13T05:46:44;18.00;99.90
57636;DHT22;43465;50.728;4.160;2023-07-13T05:49:10;18.00;99.90
57636;DHT22;43465;50.728;4.160;2023-07-13T05:51:36;18.00;99.90
57636;DHT22;43465;50.728;4.160;2023-07-13T05:54:02;18.00;99.90
57636;DHT22;43465;50.728;4.160;2023-07-13T05:56:27;18.00;99.90
57636;DHT22;43465;50.728;4.160;2023-07-13T05:58:53;18.00;99.90
57636;DHT22;43465;50.728;4.160;2023-07-13T06:01:19;18.10;99.90
57636;DHT22;43465;50.728;4.160;2023-07-13T06:03:46;18.10;99.90
57636;DHT22;43465;50.728;4.160;2023-07-13T06:06:12;18.20;99.90
57636;DHT22;43465;50.728;4.160;2023-07-13T06:08:38;18.20;99.90
57636;DHT22;43465;50.728;4.160;2023-07-13T06:11:17;18.20;99.90
57636;DHT22;43465;50.728;4.160;2023-07-13T06:13:43;18.30;99.90
57636;DHT22;43465;50.728;4.160;2023-07-13T06:16:09;18.40;99.90
57636;DHT22;43465;50.728;4.160;2023-07-13T06:18:41;18.40;99.90
57636;DHT22;43465;50.728;4.160;2023-07-13T06:21:14;18.50;99.90
57636;DHT22;43465;50.728;4.160;2023-07-13T06:23:41;18.50;99.90
57636;DHT22;43465;50.728;4.160;2023-07-13T06:26:07;18.60;99.90
57636;DHT22;43465;50.728;4.160;2023-07-13T06:28:33;18.60;99.90
57636;DHT22;43465;50.728;4.160;2023-07-13T06:31:00;18.70;99.90
57636;DHT22;43465;50.728;4.160;2023-07-13T06:33:26;18.70;99.90
57636;DHT22;43465;50.728;4.160;2023-07-13T06:35:52;18.70;99.90
57636;DHT22;43465;50.728;4.160;2023-07-13T06:38:20;18.80;99.90
57636;DHT22;43465;50.728;4.160;2023-07-13T06:40:45;18.80;99.90
57636;DHT22;43465;50.728;4.160;2023-07-13T06:43:11;18.80;99.90
57636;DHT22;43465;50.728;4.160;2023-07-13T06:45:43;18.90;99.90
57636;DHT22;43465;50.728;4.160;2023-07-13T06:48:11;18.90;99.90
57636;DHT22;43465;50.728;4.160;2023-07-13T06:50:36;18.90;99.90
57636;DHT22;43465;50.728;4.160;2023-07-13T06:53:02;19.00;99.90
57636;DHT22;43465;50.728;4.160;2023-07-13T06:55:28;19.00;99.90
57636;DHT22;43465;50.728;4.160;2023-07-13T06:57:53;19.10;99.90
57636;DHT22;43465;50.728;4.160;2023-07-13T07:00:19;19.10;99.90
57636;DHT22;43465;50.728;4.160;2023-07-13T07:02:45;19.10;99.90
57636;DHT22;43465;50.728;4.160;2023-07-13T07:05:10;19.10;99.90
57636;DHT22;43465;50.728;4.160;2023-07-13T07:07:36;19.20;99.90
57636;DHT22;43465;50.728;4.160;2023-07-13T07:10:02;19.20;99.90
57636;DHT22;43465;50.728;4.160;2023-07-13T07:12:29;19.20;99.90
57636;DHT22;43465;50.728;4.160;2023-07-13T07:14:54;19.30;99.90
57636;DHT22;43465;50.728;4.160;2023-07-13T07:17:20;19.30;99.90
57636;DHT22;43465;50.728;4.160;2023-07-13T07:19:46;19.40;99.90
57636;DHT22;43465;50.728;4.160;2023-07-13T07:22:14;19.40;99.90
57636;DHT22;43465;50.728;4.160;2023-07-13T07:24:40;19.50;99.90
57636;DHT22;43465;50.728;4.160;2023-07-13T07:27:06;19.60;99.90
57636;DHT22;43465;50.728;4.160;2023-07-13T07:29:32;19.60;99.90
57636;DHT22;43465;50.728;4.160;2023-07-13T07:31:59;19.60;99.90
57636;DHT22;43465;50.728;4.160;2023-07-13T07:34:25;19.60;99.90
57636;DHT22;43465;50.728;4.160;2023-07-13T07:36:51;19.60;99.90
57636;DHT22;43465;50.728;4.160;2023-07-13T07:39:16;19.60;99.90
57636;DHT22;43465;50.728;4.160;2023-07-13T07:41:42;19.60;99.90
57636;DHT22;43465;50.728;4.160;2023-07-13T07:44:08;19.60;99.90
57636;DHT22;43465;50.728;4.160;2023-07-13T07:46:35;19.70;99.90
57636;DHT22;43465;50.728;4.160;2023-07-13T07:49:00;19.70;99.90
57636;DHT22;43465;50.728;4.160;2023-07-13T07:51:26;19.70;99.90
57636;DHT22;43465;50.728;4.160;2023-07-13T07:53:52;19.80;99.90
57636;DHT22;43465;50.728;4.160;2023-07-13T07:56:17;19.80;99.90
57636;DHT22;43465;50.728;4.160;2023-07-13T07:58:43;19.80;99.90
57636;DHT22;43465;50.728;4.160;2023-07-13T08:01:09;19.80;99.90
57636;DHT22;43465;50.728;4.160;2023-07-13T08:03:35;19.90;99.90
57636;DHT22;43465;50.728;4.160;2023-07-13T08:06:01;19.90;99.90
57636;DHT22;43465;50.728;4.160;2023-07-13T08:08:27;20.00;99.90
57636;DHT22;43465;50.728;4.160;2023-07-13T08:10:53;20.10;99.90
57636;DHT22;43465;50.728;4.160;2023-07-13T08:13:19;20.10;99.90
57636;DHT22;43465;50.728;4.160;2023-07-13T08:15:47;20.30;99.90
57636;DHT22;43465;50.728;4.160;2023-07-13T08:18:14;20.40;99.90
57636;DHT22;43465;50.728;4.160;2023-07-13T08:20:40;20.40;99.90
57636;DHT22;43465;50.728;4.160;2023-07-13T08:23:10;20.50;99.90
57636;DHT22;43465;50.728;4.160;2023-07-13T08:25:36;20.60;99.90
57636;DHT22;43465;50.728;4.160;2023-07-13T08:28:02;20.70;99.90
57636;DHT22;43465;50.728;4.160;2023-07-13T08:30:28;20.70;99.90
57636;DHT22;43465;50.728;4.160;2023-07-13T08:32:54;20.80;99.90
57636;DHT22;43465;50.728;4.160;2023-07-13T08:35:20;20.80;99.90
57636;DHT22;43465;50.728;4.160;2023-07-13T08:37:45;20.90;99.90
57636;DHT22;43465;50.728;4.160;2023-07-13T08:40:12;20.90;99.90
57636;DHT22;43465;50.728;4.160;2023-07-13T08:42:53;20.90;99.90
57636;DHT22;43465;50.728;4.160;2023-07-13T08:48:26;20.90;99.90
57636;DHT22;43465;50.728;4.160;2023-07-13T08:51:05;21.00;99.90
57636;DHT22;43465;50.728;4.160;2023-07-13T08:53:39;21.10;99.90
57636;DHT22;43465;50.728;4.160;2023-07-13T08:56:11;21.20;99.90
57636;DHT22;43465;50.728;4.160;2023-07-13T08:58:41;21.20;99.90
57636;DHT22;43465;50.728;4.160;2023-07-13T09:01:31;21.30;99.90
57636;DHT22;43465;50.728;4.160;2023-07-13T09:04:18;21.40;99.90
57636;DHT22;43465;50.728;4.160;2023-07-13T09:17:52;21.30;99.90
57636;DHT22;43465;50.728;4.160;2023-07-13T09:20:25;21.20;99.90
57636;DHT22;43465;50.728;4.160;2023-07-13T09:22:52;21.20;99.90
57636;DHT22;43465;50.728;4.160;2023-07-13T09:25:34;21.10;99.90
57636;DHT22;43465;50.728;4.160;2023-07-13T09:28:22;21.10;99.90
57636;DHT22;43465;50.728;4.160;2023-07-13T09:31:03;21.10;99.90
57636;DHT22;43465;50.728;4.160;2023-07-13T09:33:31;21.00;99.90
57636;DHT22;43465;50.728;4.160;2023-07-13T09:36:00;21.00;99.90
57636;DHT22;43465;50.728;4.160;2023-07-13T09:38:28;20.90;99.90
57636;DHT22;43465;50.728;4.160;2023-07-13T09:41:20;20.90;99.90
57636;DHT22;43465;50.728;4.160;2023-07-13T09:44:31;21.00;99.90
57636;DHT22;43465;50.728;4.160;2023-07-13T09:46:58;21.00;99.90
57636;DHT22;43465;50.728;4.160;2023-07-13T09:49:29;20.90;99.90
57636;DHT22;43465;50.728;4.160;2023-07-13T09:52:02;21.00;99.90
57636;DHT22;43465;50.728;4.160;2023-07-13T09:54:29;21.00;99.90
57636;DHT22;43465;50.728;4.160;2023-07-13T09:56:58;21.00;99.90
57636;DHT22;43465;50.728;4.160;2023-07-13T09:59:30;21.00;99.90
57636;DHT22;43465;50.728;4.160;2023-07-13T10:01:56;21.00;99.90
57636;DHT22;43465;50.728;4.160;2023-07-13T10:04:31;21.10;99.90
57636;DHT22;43465;50.728;4.160;2023-07-13T10:07:08;21.20;99.90
57636;DHT22;43465;50.728;4.160;2023-07-13T10:09:34;21.30;99.90
57636;DHT22;43465;50.728;4.160;2023-07-13T10:12:00;21.50;99.90
57636;DHT22;43465;50.728;4.160;2023-07-13T10:14:27;21.60;99.90
57636;DHT22;43465;50.728;4.160;2023-07-13T10:17:00;21.70;99.90
57636;DHT22;43465;50.728;4.160;2023-07-13T10:19:34;21.60;99.90
57636;DHT22;43465;50.728;4.160;2023-07-13T10:22:02;21.60;99.90
57636;DHT22;43465;50.728;4.160;2023-07-13T10:24:37;21.60;99.90
57636;DHT22;43465;50.728;4.160;2023-07-13T10:27:20;21.70;99.90
57636;DHT22;43465;50.728;4.160;2023-07-13T10:30:15;21.70;99.90
57636;DHT22;43465;50.728;4.160;2023-07-13T10:32:43;21.80;99.90
57636;DHT22;43465;50.728;4.160;2023-07-13T10:35:12;21.80;99.90
57636;DHT22;43465;50.728;4.160;2023-07-13T10:38:22;21.80;99.90
57636;DHT22;43465;50.728;4.160;2023-07-13T10:41:07;21.70;99.90
57636;DHT22;43465;50.728;4.160;2023-07-13T10:43:41;21.70;99.90
57636;DHT22;43465;50.728;4.160;2023-07-13T10:46:11;21.80;99.90
57636;DHT22;43465;50.728;4.160;2023-07-13T10:48:39;21.90;99.90
57636;DHT22;43465;50.728;4.160;2023-07-13T10:51:06;21.90;99.90
57636;DHT22;43465;50.728;4.160;2023-07-13T10:53:37;21.90;99.90
57636;DHT22;43465;50.728;4.160;2023-07-13T10:56:05;21.90;99.90
57636;DHT22;43465;50.728;4.160;2023-07-13T10:58:34;21.90;99.90
57636;DHT22;43465;50.728;4.160;2023-07-13T11:03:35;22.10;99.90
57636;DHT22;43465;50.728;4.160;2023-07-13T11:08:55;22.60;99.90
57636;DHT22;43465;50.728;4.160;2023-07-13T11:21:29;23.40;99.90
57636;DHT22;43465;50.728;4.160;2023-07-13T11:24:16;23.50;99.90
57636;DHT22;43465;50.728;4.160;2023-07-13T11:29:32;23.50;99.90
57636;DHT22;43465;50.728;4.160;2023-07-13T11:32:10;23.40;99.90
57636;DHT22;43465;50.728;4.160;2023-07-13T11:34:46;23.20;99.90
57636;DHT22;43465;50.728;4.160;2023-07-13T11:37:15;23.00;99.90
57636;DHT22;43465;50.728;4.160;2023-07-13T11:39:43;23.00;99.90
57636;DHT22;43465;50.728;4.160;2023-07-13T11:42:13;22.90;99.90
57636;DHT22;43465;50.728;4.160;2023-07-13T11:44:45;22.90;99.90
57636;DHT22;43465;50.728;4.160;2023-07-13T11:47:17;22.90;99.90
57636;DHT22;43465;50.728;4.160;2023-07-13T11:49:49;23.00;99.90
57636;DHT22;43465;50.728;4.160;2023-07-13T11:52:17;23.10;99.90
57636;DHT22;43465;50.728;4.160;2023-07-13T11:54:48;23.10;99.90
57636;DHT22;43465;50.728;4.160;2023-07-13T11:57:37;23.20;99.90
57636;DHT22;43465;50.728;4.160;2023-07-13T12:00:18;23.30;99.90
57636;DHT22;43465;50.728;4.160;2023-07-13T12:02:49;23.50;99.90
57636;DHT22;43465;50.728;4.160;2023-07-13T12:05:17;23.50;99.90
57636;DHT22;43465;50.728;4.160;2023-07-13T12:07:44;23.60;99.90
57636;DHT22;43465;50.728;4.160;2023-07-13T12:10:25;23.50;99.30
57636;DHT22;43465;50.728;4.160;2023-07-13T12:13:00;23.50;99.90
57636;DHT22;43465;50.728;4.160;2023-07-13T12:15:44;23.50;99.60
57636;DHT22;43465;50.728;4.160;2023-07-13T12:18:22;23.50;99.80
57636;DHT22;43465;50.728;4.160;2023-07-13T12:20:51;23.30;99.00
57636;DHT22;43465;50.728;4.160;2023-07-13T12:23:32;23.30;99.10
57636;DHT22;43465;50.728;4.160;2023-07-13T12:26:02;23.20;99.20
57636;DHT22;43465;50.728;4.160;2023-07-13T12:28:35;23.10;97.80
57636;DHT22;43465;50.728;4.160;2023-07-13T12:31:01;22.70;99.90
57636;DHT22;43465;50.728;4.160;2023-07-13T12:33:29;22.30;99.90
57636;DHT22;43465;50.728;4.160;2023-07-13T12:35:56;21.80;99.90
57636;DHT22;43465;50.728;4.160;2023-07-13T12:38:25;21.50;99.90
57636;DHT22;43465;50.728;4.160;2023-07-13T12:40:52;21.20;99.90
57636;DHT22;43465;50.728;4.160;2023-07-13T12:43:21;21.10;99.90
57636;DHT22;43465;50.728;4.160;2023-07-13T12:46:03;21.10;99.90
57636;DHT22;43465;50.728;4.160;2023-07-13T12:48:29;21.10;99.90
57636;DHT22;43465;50.728;4.160;2023-07-13T12:50:56;21.20;99.90
57636;DHT22;43465;50.728;4.160;2023-07-13T12:53:30;21.30;99.90
57636;DHT22;43465;50.728;4.160;2023-07-13T12:56:02;21.40;99.90
57636;DHT22;43465;50.728;4.160;2023-07-13T12:58:41;21.60;99.90
57636;DHT22;43465;50.728;4.160;2023-07-13T13:01:10;21.80;99.90
57636;DHT22;43465;50.728;4.160;2023-07-13T13:03:39;21.90;99.90
57636;DHT22;43465;50.728;4.160;2023-07-13T13:06:20;22.00;99.90
57636;DHT22;43465;50.728;4.160;2023-07-13T13:08:53;22.20;99.90
57636;DHT22;43465;50.728;4.160;2023-07-13T13:11:20;22.40;99.90
57636;DHT22;43465;50.728;4.160;2023-07-13T13:13:46;22.60;99.90
57636;DHT22;43465;50.728;4.160;2023-07-13T13:18:55;23.20;99.90
57636;DHT22;43465;50.728;4.160;2023-07-13T13:21:23;23.50;99.90
57636;DHT22;43465;50.728;4.160;2023-07-13T13:23:49;23.80;99.90
57636;DHT22;43465;50.728;4.160;2023-07-13T13:26:16;24.00;99.30
57636;DHT22;43465;50.728;4.160;2023-07-13T13:28:43;24.20;99.90
57636;DHT22;43465;50.728;4.160;2023-07-13T13:31:13;24.30;99.20
57636;DHT22;43465;50.728;4.160;2023-07-13T13:33:40;24.40;98.20
57636;DHT22;43465;50.728;4.160;2023-07-13T13:36:14;24.50;98.90
57636;DHT22;43465;50.728;4.160;2023-07-13T13:38:41;24.50;96.20
57636;DHT22;43465;50.728;4.160;2023-07-13T13:41:10;24.50;96.50
57636;DHT22;43465;50.728;4.160;2023-07-13T13:43:35;24.40;96.40
57636;DHT22;43465;50.728;4.160;2023-07-13T13:46:01;24.50;97.40
57636;DHT22;43465;50.728;4.160;2023-07-13T13:50:57;24.40;96.10
57636;DHT22;43465;50.728;4.160;2023-07-13T13:53:23;24.20;95.60
57636;DHT22;43465;50.728;4.160;2023-07-13T13:55:49;24.10;95.80
57636;DHT22;43465;50.728;4.160;2023-07-13T13:58:15;24.00;96.00
57636;DHT22;43465;50.728;4.160;2023-07-13T14:00:41;23.90;96.30
57636;DHT22;43465;50.728;4.160;2023-07-13T14:03:16;23.70;96.50
57636;DHT22;43465;50.728;4.160;2023-07-13T14:05:43;23.60;96.80
57636;DHT22;43465;50.728;4.160;2023-07-13T14:08:20;23.30;99.10
57636;DHT22;43465;50.728;4.160;2023-07-13T14:10:49;23.10;99.90
57636;DHT22;43465;50.728;4.160;2023-07-13T14:13:25;22.80;99.90
57636;DHT22;43465;50.728;4.160;2023-07-13T14:15:53;22.60;99.90
57636;DHT22;43465;50.728;4.160;2023-07-13T14:18:19;22.30;99.90
57636;DHT22;43465;50.728;4.160;2023-07-13T14:20:46;22.20;99.90
57636;DHT22;43465;50.728;4.160;2023-07-13T14:23:15;22.10;99.90
57636;DHT22;43465;50.728;4.160;2023-07-13T14:25:42;22.00;99.90
57636;DHT22;43465;50.728;4.160;2023-07-13T14:28:24;21.90;99.90
57636;DHT22;43465;50.728;4.160;2023-07-13T14:30:52;21.90;99.90
57636;DHT22;43465;50.728;4.160;2023-07-13T14:33:18;21.80;99.90
57636;DHT22;43465;50.728;4.160;2023-07-13T14:35:43;21.80;99.90
57636;DHT22;43465;50.728;4.160;2023-07-13T14:38:12;21.90;99.90
57636;DHT22;43465;50.728;4.160;2023-07-13T14:40:39;22.10;99.90
57636;DHT22;43465;50.728;4.160;2023-07-13T14:43:07;22.30;99.90
57636;DHT22;43465;50.728;4.160;2023-07-13T14:45:34;22.40;99.90
57636;DHT22;43465;50.728;4.160;2023-07-13T14:48:01;22.60;99.90
57636;DHT22;43465;50.728;4.160;2023-07-13T14:50:31;22.70;99.90
57636;DHT22;43465;50.728;4.160;2023-07-13T14:52:57;22.80;99.90
57636;DHT22;43465;50.728;4.160;2023-07-13T14:55:23;23.10;99.90
57636;DHT22;43465;50.728;4.160;2023-07-13T14:57:51;24.20;99.90
57636;DHT22;43465;50.728;4.160;2023-07-13T15:00:19;25.80;99.90
57636;DHT22;43465;50.728;4.160;2023-07-13T15:02:50;27.50;98.00
57636;DHT22;43465;50.728;4.160;2023-07-13T15:05:20;29.20;95.40
57636;DHT22;43465;50.728;4.160;2023-07-13T15:07:48;30.60;92.40
57636;DHT22;43465;50.728;4.160;2023-07-13T15:10:22;31.70;87.30
57636;DHT22;43465;50.728;4.160;2023-07-13T15:12:51;32.60;82.60
57636;DHT22;43465;50.728;4.160;2023-07-13T15:15:17;33.40;78.90
57636;DHT22;43465;50.728;4.160;2023-07-13T15:17:45;33.90;77.50
57636;DHT22;43465;50.728;4.160;2023-07-13T15:20:22;34.60;74.30
57636;DHT22;43465;50.728;4.160;2023-07-13T15:22:49;35.30;70.70
57636;DHT22;43465;50.728;4.160;2023-07-13T15:25:21;35.60;69.30
57636;DHT22;43465;50.728;4.160;2023-07-13T15:27:47;35.10;65.00
57636;DHT22;43465;50.728;4.160;2023-07-13T15:30:13;34.00;62.10
57636;DHT22;43465;50.728;4.160;2023-07-13T15:32:44;32.90;65.90
57636;DHT22;43465;50.728;4.160;2023-07-13T15:35:21;31.90;68.20
57636;DHT22;43465;50.728;4.160;2023-07-13T15:37:48;30.90;69.40
57636;DHT22;43465;50.728;4.160;2023-07-13T15:40:14;30.10;71.00
57636;DHT22;43465;50.728;4.160;2023-07-13T15:42:44;29.60;73.60
57636;DHT22;43465;50.728;4.160;2023-07-13T15:45:22;29.20;74.90
57636;DHT22;43465;50.728;4.160;2023-07-13T15:47:49;28.90;74.20
57636;DHT22;43465;50.728;4.160;2023-07-13T15:50:18;28.50;75.50
57636;DHT22;43465;50.728;4.160;2023-07-13T15:52:48;28.30;77.00
57636;DHT22;43465;50.728;4.160;2023-07-13T15:55:14;28.00;75.90
57636;DHT22;43465;50.728;4.160;2023-07-13T15:57:44;27.70;78.60
57636;DHT22;43465;50.728;4.160;2023-07-13T16:00:27;27.50;76.80
57636;DHT22;43465;50.728;4.160;2023-07-13T16:02:53;27.10;77.30
57636;DHT22;43465;50.728;4.160;2023-07-13T16:05:20;26.90;77.80
57636;DHT22;43465;50.728;4.160;2023-07-13T16:07:48;26.70;79.00
57636;DHT22;43465;50.728;4.160;2023-07-13T16:10:32;26.40;77.80
57636;DHT22;43465;50.728;4.160;2023-07-13T16:12:58;26.30;81.90
57636;DHT22;43465;50.728;4.160;2023-07-13T16:15:25;26.30;80.50
57636;DHT22;43465;50.728;4.160;2023-07-13T16:17:51;26.10;80.10
57636;DHT22;43465;50.728;4.160;2023-07-13T16:20:17;26.00;80.10